Time;durP1;ratioP1;P1;durP2;ratioP2;P2;SDS_P1;SDS_P2;PMS_P1;PMS_P2;Temp;Humidity;BMP_temperature;BMP_pressure;BME280_temperature;BME280_humidity;BME280_pressure;Samples;Min_cycle;Max_cycle;Signal;HPM_P1;HPM_P2
2023/10/28 00:01:45;;;;;;;149.90;34.85;;;10.70;99.90;;;;;;4935854;28;20063;-79
2023/10/28 00:04:11;;;;;;;257.48;42.78;;;9.60;99.90;;;;;;4928119;29;20051;-78
2023/10/28 00:06:37;;;;;;;339.73;46.08;;;7.00;99.90;;;;;;4932012;29;20059;-79
2023/10/28 00:09:03;;;;;;;265.98;44.03;;;9.60;99.90;;;;;;4943584;29;20058;-79
2023/10/28 00:11:29;;;;;;;165.10;39.88;;;12.00;99.90;;;;;;4911341;29;20047;-79
2023/10/28 00:13:55;;;;;;;269.60;43.60;;;9.60;99.90;;;;;;4926530;29;20055;-81
2023/10/28 00:16:23;;;;;;;229.95;45.30;;;9.60;99.90;;;;;;4926948;29;20054;-80
2023/10/28 00:18:49;;;;;;;180.95;40.97;;;9.60;99.90;;;;;;4930291;29;20201;-80
2023/10/28 00:21:34;;;;;;;260.27;43.35;;;9.60;99.90;;;;;;4946453;28;20047;-80
2023/10/28 00:24:18;;;;;;;197.13;43.30;;;9.70;99.90;;;;;;4920432;29;20130;-82
2023/10/28 00:26:47;;;;;;;177.18;40.58;;;9.60;99.90;;;;;;4949510;28;20412;-79
2023/10/28 00:29:15;;;;;;;202.60;42.08;;;9.60;99.90;;;;;;4916625;29;20059;-80
2023/10/28 00:31:41;;;;;;;172.73;41.72;;;9.60;99.90;;;;;;4931179;29;20055;-82
2023/10/28 00:34:08;;;;;;;202.48;43.97;;;9.60;99.90;;;;;;4924302;29;20082;-81
2023/10/28 00:36:36;;;;;;;227.50;45.20;;;10.00;99.90;;;;;;4925765;29;20707;-80
2023/10/28 00:39:06;;;;;;;185.68;41.58;;;9.50;99.90;;;;;;4930774;29;20043;-81
2023/10/28 00:41:32;;;;;;;216.60;44.10;;;9.50;99.90;;;;;;4931481;28;20055;-80
2023/10/28 00:44:03;;;;;;;276.42;48.85;;;9.40;99.90;;;;;;4934709;28;20066;-80
2023/10/28 00:46:28;;;;;;;415.60;51.30;;;9.40;99.90;;;;;;4939143;28;20078;-79
2023/10/28 00:48:57;;;;;;;323.63;48.75;;;9.30;99.90;;;;;;4928320;29;20166;-79
2023/10/28 00:51:23;;;;;;;225.68;45.75;;;10.30;99.90;;;;;;4932286;29;20054;-83
2023/10/28 00:53:51;;;;;;;255.93;46.97;;;9.40;99.90;;;;;;4930387;28;20050;-81
2023/10/28 00:56:18;;;;;;;282.52;48.72;;;9.30;99.90;;;;;;4926851;28;20051;-83
2023/10/28 00:58:46;;;;;;;256.90;49.90;;;9.30;99.90;;;;;;4933788;29;20062;-80
2023/10/28 01:01:13;;;;;;;199.70;48.05;;;7.50;99.90;;;;;;4930295;28;20145;-82
2023/10/28 01:03:40;;;;;;;454.77;58.92;;;9.40;99.90;;;;;;4920773;29;20098;-80
2023/10/28 01:06:09;;;;;;;265.83;52.30;;;9.40;99.90;;;;;;4923984;29;20055;-80
2023/10/28 01:08:38;;;;;;;266.73;54.95;;;9.40;99.90;;;;;;4942062;28;20408;-82
2023/10/28 01:11:04;;;;;;;393.05;60.83;;;9.50;99.90;;;;;;4924425;29;20054;-80
2023/10/28 01:13:30;;;;;;;277.67;55.72;;;9.50;99.90;;;;;;4924166;29;20043;-78
2023/10/28 01:16:01;;;;;;;253.98;53.92;;;9.50;99.90;;;;;;4939774;29;20121;-79
2023/10/28 01:18:30;;;;;;;368.90;58.83;;;9.50;99.90;;;;;;4924593;29;20053;-79
2023/10/28 01:20:58;;;;;;;283.40;55.83;;;9.50;99.90;;;;;;4942780;28;20637;-83
2023/10/28 01:23:23;;;;;;;443.30;63.10;;;9.70;99.90;;;;;;4940185;28;20548;-82
2023/10/28 01:25:54;;;;;;;309.60;56.72;;;9.50;99.90;;;;;;4943487;28;20113;-81
2023/10/28 01:28:20;;;;;;;268.02;55.33;;;9.60;99.90;;;;;;4927003;28;20054;-81
2023/10/28 01:30:48;;;;;;;269.55;54.72;;;9.60;99.90;;;;;;4940085;28;20050;-78
2023/10/28 01:33:14;;;;;;;310.70;59.30;;;9.60;99.90;;;;;;4940491;28;20057;-78
2023/10/28 01:35:39;;;;;;;258.13;53.20;;;9.60;99.90;;;;;;4939541;28;20059;-83
2023/10/28 01:38:05;;;;;;;220.85;52.80;;;9.60;99.90;;;;;;4940268;28;20055;-80
2023/10/28 01:40:31;;;;;;;338.92;58.45;;;9.60;99.90;;;;;;4939980;28;20055;-82
2023/10/28 01:42:59;;;;;;;278.42;58.33;;;9.60;99.90;;;;;;4941794;28;20051;-80
2023/10/28 01:45:25;;;;;;;201.23;49.80;;;9.60;99.90;;;;;;4937171;29;20050;-81
2023/10/28 01:47:52;;;;;;;506.65;67.95;;;9.50;99.90;;;;;;4939803;28;20058;-80
2023/10/28 01:50:20;;;;;;;273.30;57.03;;;9.50;99.90;;;;;;4919743;29;20051;-82
2023/10/28 01:52:46;;;;;;;238.07;52.60;;;9.50;99.90;;;;;;4938968;28;20043;-79
2023/10/28 01:55:12;;;;;;;220.10;53.90;;;9.40;99.90;;;;;;4939105;29;20055;-83
2023/10/28 01:57:38;;;;;;;300.02;57.47;;;9.60;99.90;;;;;;4944437;28;20109;-78
2023/10/28 02:00:12;;;;;;;194.70;50.60;;;9.40;99.90;;;;;;4942526;28;20148;-81
2023/10/28 02:02:38;;;;;;;213.85;49.97;;;9.50;99.90;;;;;;4940131;28;20063;-80
2023/10/28 02:05:04;;;;;;;254.98;54.25;;;9.30;99.90;;;;;;4925838;28;20558;-80
2023/10/28 02:07:33;;;;;;;277.50;56.63;;;9.30;99.90;;;;;;4943631;28;20059;-79
2023/10/28 02:10:00;;;;;;;263.33;55.63;;;9.20;99.90;;;;;;4944108;28;20074;-77
2023/10/28 02:12:26;;;;;;;296.40;55.60;;;9.20;99.90;;;;;;4928004;28;20055;-79
2023/10/28 02:14:52;;;;;;;295.80;56.22;;;9.30;99.90;;;;;;4943320;28;20152;-79
2023/10/28 02:17:18;;;;;;;319.48;55.88;;;9.20;99.90;;;;;;4947066;28;20050;-80
2023/10/28 02:19:47;;;;;;;313.38;56.40;;;9.20;99.90;;;;;;4931101;28;20113;-80
2023/10/28 02:22:13;;;;;;;195.00;48.08;;;9.20;99.90;;;;;;4943419;29;20130;-83
2023/10/28 02:24:39;;;;;;;199.15;49.97;;;9.70;99.90;;;;;;4946732;28;20116;-82
2023/10/28 02:27:05;;;;;;;234.43;52.35;;;9.20;99.90;;;;;;4930173;28;20051;-79
2023/10/28 02:29:30;;;;;;;233.55;52.33;;;10.30;99.90;;;;;;4946948;28;20065;-79
2023/10/28 02:31:56;;;;;;;257.92;53.60;;;9.20;99.90;;;;;;4927919;29;20051;-80
2023/10/28 02:34:22;;;;;;;282.13;54.35;;;9.20;99.90;;;;;;4945534;28;20039;-79
2023/10/28 02:36:53;;;;;;;222.75;50.08;;;9.50;99.90;;;;;;4944734;28;20822;-81
2023/10/28 02:42:05;;;;;;;419.50;60.95;;;9.20;99.90;;;;;;4942702;29;20088;-80
2023/10/28 02:44:30;;;;;;;253.50;54.45;;;9.10;99.90;;;;;;4945377;28;20057;-79
2023/10/28 02:46:56;;;;;;;358.88;60.58;;;9.10;99.90;;;;;;4925600;28;20452;-83
2023/10/28 02:49:25;;;;;;;218.68;51.40;;;9.10;99.90;;;;;;4941816;28;20405;-79
2023/10/28 02:51:51;;;;;;;192.98;49.42;;;9.40;99.90;;;;;;4941729;28;20602;-82
2023/10/28 02:54:17;;;;;;;419.63;60.13;;;9.00;99.90;;;;;;4942942;29;20138;-80
2023/10/28 02:56:44;;;;;;;214.57;49.90;;;8.90;99.90;;;;;;4943865;28;20063;-82
2023/10/28 02:59:11;;;;;;;246.55;52.60;;;8.90;99.90;;;;;;4929851;28;20082;-79
2023/10/28 03:01:39;;;;;;;203.27;48.35;;;8.90;99.90;;;;;;4946607;28;20070;-80
2023/10/28 03:04:06;;;;;;;254.48;52.53;;;8.90;99.90;;;;;;4942947;28;20119;-77
2023/10/28 03:06:32;;;;;;;179.50;45.53;;;9.90;99.90;;;;;;4970293;28;20136;-78
2023/10/28 03:08:58;;;;;;;270.00;52.10;;;8.90;99.90;;;;;;4957974;28;20054;-81
2023/10/28 03:11:24;;;;;;;190.38;46.30;;;9.00;99.90;;;;;;4967288;28;20074;-80
2023/10/28 03:13:53;;;;;;;221.23;48.78;;;8.90;99.90;;;;;;4963580;28;20554;-79
2023/10/28 03:16:19;;;;;;;209.10;48.72;;;8.90;99.90;;;;;;4995051;28;20062;-80
2023/10/28 03:18:46;;;;;;;195.23;48.70;;;9.50;99.90;;;;;;4962577;28;20123;-80
2023/10/28 03:21:12;;;;;;;291.13;54.65;;;8.90;99.90;;;;;;4993632;28;20499;-82
2023/10/28 03:23:38;;;;;;;239.27;53.25;;;6.00;99.90;;;;;;4962496;28;20056;-77
2023/10/28 03:26:07;;;;;;;373.20;60.88;;;8.80;99.90;;;;;;4958990;28;20467;-77
2023/10/28 03:28:32;;;;;;;161.18;45.45;;;8.80;99.90;;;;;;4960893;28;20051;-82
2023/10/28 03:30:58;;;;;;;219.05;50.28;;;8.80;99.90;;;;;;4960445;28;20046;-79
2023/10/28 03:33:26;;;;;;;187.13;47.67;;;8.80;99.90;;;;;;4943945;28;20387;-82
2023/10/28 03:35:55;;;;;;;261.00;53.63;;;8.80;99.90;;;;;;4945430;28;20051;-81
2023/10/28 03:38:22;;;;;;;291.55;53.83;;;7.50;99.90;;;;;;4929725;28;20523;-79
2023/10/28 03:40:47;;;;;;;228.25;49.80;;;8.90;99.90;;;;;;4956393;28;20057;-77
2023/10/28 03:43:13;;;;;;;212.07;49.58;;;8.80;99.90;;;;;;4994591;28;20046;-80
2023/10/28 03:45:39;;;;;;;174.95;46.38;;;8.80;99.90;;;;;;4938916;28;20084;-80
2023/10/28 03:48:05;;;;;;;195.05;49.53;;;8.80;99.90;;;;;;4959308;28;20543;-83
2023/10/28 03:50:31;;;;;;;207.23;51.72;;;8.90;99.90;;;;;;4961647;28;20654;-81
2023/10/28 03:52:57;;;;;;;249.98;53.97;;;8.90;99.90;;;;;;4956696;28;20137;-83
2023/10/28 03:55:23;;;;;;;149.05;45.95;;;9.00;99.90;;;;;;4949354;28;20054;-78
2023/10/28 03:57:48;;;;;;;182.45;47.47;;;8.90;99.90;;;;;;4966468;28;20081;-79
2023/10/28 04:00:17;;;;;;;153.40;47.05;;;9.00;99.90;;;;;;4949727;28;20050;-79
2023/10/28 04:02:43;;;;;;;137.50;44.85;;;9.00;99.90;;;;;;4969507;28;20457;-80
2023/10/28 04:05:09;;;;;;;168.63;47.47;;;9.00;99.90;;;;;;4949333;28;20109;-78
2023/10/28 04:07:35;;;;;;;217.18;50.25;;;9.00;99.90;;;;;;4956304;28;20054;-77
2023/10/28 04:10:07;;;;;;;151.40;45.75;;;9.10;99.90;;;;;;4964265;28;20050;-79
2023/10/28 04:12:33;;;;;;;315.80;54.83;;;9.10;99.90;;;;;;4950790;28;20054;-81
2023/10/28 04:15:12;;;;;;;146.02;45.22;;;10.40;99.90;;;;;;4950638;28;20050;-79
2023/10/28 04:17:41;;;;;;;293.58;59.08;;;9.10;99.90;;;;;;4960823;28;20050;-79
2023/10/28 04:20:07;;;;;;;243.63;51.72;;;9.60;99.90;;;;;;4964458;28;20065;-77
2023/10/28 04:22:33;;;;;;;205.10;48.60;;;9.10;99.90;;;;;;4964316;28;20054;-80
2023/10/28 04:25:01;;;;;;;197.90;47.78;;;10.10;99.90;;;;;;4963385;28;20050;-79
2023/10/28 04:27:29;;;;;;;128.30;41.53;;;9.10;99.90;;;;;;4963781;28;20299;-77
2023/10/28 04:29:55;;;;;;;212.88;49.45;;;9.30;99.90;;;;;;4958570;28;20439;-79
2023/10/28 04:32:23;;;;;;;176.63;47.00;;;9.10;99.90;;;;;;4953370;28;20116;-79
2023/10/28 04:34:50;;;;;;;161.98;45.70;;;9.10;99.90;;;;;;4951835;28;20054;-79
2023/10/28 04:37:17;;;;;;;155.80;44.88;;;9.20;99.90;;;;;;4931068;28;20399;-79
2023/10/28 04:39:42;;;;;;;141.85;43.83;;;9.20;99.90;;;;;;4960538;28;20046;-78
2023/10/28 04:42:08;;;;;;;156.93;43.88;;;9.20;99.90;;;;;;4954024;28;20847;-81
2023/10/28 04:44:34;;;;;;;130.25;42.58;;;9.20;99.90;;;;;;4959545;28;20499;-78
2023/10/28 04:47:01;;;;;;;181.13;46.50;;;9.20;99.90;;;;;;4957835;28;20050;-80
2023/10/28 04:49:30;;;;;;;152.23;44.05;;;9.20;99.90;;;;;;4956535;28;20046;-82
2023/10/28 04:51:56;;;;;;;126.97;40.50;;;9.30;99.90;;;;;;4960483;28;20141;-77
2023/10/28 04:54:22;;;;;;;226.80;50.40;;;9.20;99.90;;;;;;4956406;28;20552;-79
2023/10/28 04:56:51;;;;;;;196.45;46.42;;;9.80;99.90;;;;;;4959009;28;20056;-82
2023/10/28 04:59:19;;;;;;;198.45;48.33;;;9.30;99.90;;;;;;4954977;28;20590;-78
2023/10/28 05:01:44;;;;;;;212.88;48.75;;;9.30;99.90;;;;;;4946190;28;20059;-80
2023/10/28 05:04:10;;;;;;;216.35;49.60;;;9.30;99.90;;;;;;4938764;29;20749;-81
2023/10/28 05:06:36;;;;;;;288.13;52.72;;;9.80;99.90;;;;;;4937680;29;20109;-78
2023/10/28 05:09:03;;;;;;;177.00;44.70;;;9.20;99.90;;;;;;4921900;29;20591;-79
2023/10/28 05:11:29;;;;;;;152.48;43.47;;;9.30;99.90;;;;;;4937922;29;20135;-80
2023/10/28 05:13:54;;;;;;;154.70;42.38;;;9.40;99.90;;;;;;4943562;28;20141;-78
2023/10/28 05:16:23;;;;;;;197.88;47.15;;;9.30;99.90;;;;;;4940399;29;20080;-81
2023/10/28 05:18:49;;;;;;;195.73;45.72;;;9.40;99.90;;;;;;4927580;28;20476;-81
2023/10/28 05:21:15;;;;;;;259.35;48.42;;;9.30;99.90;;;;;;4940247;28;20043;-80
2023/10/28 05:23:43;;;;;;;199.23;44.85;;;9.40;99.90;;;;;;4942828;28;20039;-78
2023/10/28 05:26:09;;;;;;;268.05;48.92;;;9.30;99.90;;;;;;4930202;29;20066;-78
2023/10/28 05:28:34;;;;;;;138.50;40.75;;;9.50;99.90;;;;;;4938633;29;20051;-80
2023/10/28 05:31:00;;;;;;;228.02;46.85;;;9.70;99.90;;;;;;4938353;29;20058;-81
2023/10/28 05:33:26;;;;;;;190.60;44.50;;;9.40;99.90;;;;;;4941476;28;20779;-80
2023/10/28 05:35:51;;;;;;;194.70;42.75;;;9.40;99.90;;;;;;4934335;29;20524;-78
2023/10/28 05:38:18;;;;;;;180.77;44.65;;;9.50;99.90;;;;;;4936707;29;20142;-81
2023/10/28 05:40:45;;;;;;;206.90;44.97;;;9.40;99.90;;;;;;4963899;28;20469;-78
2023/10/28 05:43:11;;;;;;;169.60;44.75;;;9.40;99.90;;;;;;4938463;28;20047;-79
2023/10/28 05:45:37;;;;;;;265.38;47.40;;;9.40;99.90;;;;;;4942577;28;20129;-80
2023/10/28 05:48:04;;;;;;;151.50;40.75;;;9.40;99.90;;;;;;4935777;29;20086;-78
2023/10/28 05:50:29;;;;;;;142.85;42.20;;;9.40;99.90;;;;;;4939103;29;20051;-79
2023/10/28 05:52:55;;;;;;;163.48;40.55;;;9.40;99.90;;;;;;4941796;28;20069;-84
2023/10/28 05:55:22;;;;;;;133.90;39.65;;;9.50;99.90;;;;;;4930115;29;20477;-80
2023/10/28 05:57:49;;;;;;;284.92;48.10;;;10.80;99.90;;;;;;4941731;28;20625;-78
2023/10/28 06:00:16;;;;;;;153.95;41.35;;;9.40;99.90;;;;;;4939234;28;20050;-78
2023/10/28 06:02:42;;;;;;;205.90;43.75;;;9.50;99.90;;;;;;4945771;28;20066;-80
2023/10/28 06:05:08;;;;;;;134.85;37.67;;;9.50;99.90;;;;;;4922433;29;20484;-81
2023/10/28 06:07:34;;;;;;;108.28;35.10;;;9.50;99.90;;;;;;4927721;29;20035;-76
2023/10/28 06:10:04;;;;;;;107.15;34.95;;;9.50;99.90;;;;;;4925395;29;20051;-77
2023/10/28 06:12:30;;;;;;;93.00;33.65;;;9.50;99.90;;;;;;4932204;28;20051;-82
2023/10/28 06:14:56;;;;;;;134.35;36.85;;;10.80;99.90;;;;;;4951827;28;20546;-78
2023/10/28 06:17:22;;;;;;;159.30;39.33;;;9.50;99.90;;;;;;4935186;29;20154;-78
2023/10/28 06:19:48;;;;;;;142.20;35.53;;;9.50;99.90;;;;;;4972240;28;20504;-80
2023/10/28 06:22:14;;;;;;;83.68;31.10;;;9.50;99.90;;;;;;4943767;28;20128;-80
2023/10/28 06:24:40;;;;;;;123.70;35.63;;;9.80;99.90;;;;;;4936403;29;20537;-84
2023/10/28 06:27:07;;;;;;;116.03;34.58;;;9.50;99.90;;;;;;4927284;29;20142;-82
2023/10/28 06:29:32;;;;;;;236.80;41.28;;;10.20;99.90;;;;;;4938833;29;20055;-79
2023/10/28 06:31:58;;;;;;;122.88;34.17;;;10.80;99.90;;;;;;4940746;28;20058;-81
2023/10/28 06:34:27;;;;;;;154.88;37.10;;;9.50;99.90;;;;;;4934298;29;20102;-81
2023/10/28 06:36:56;;;;;;;81.05;29.60;;;9.50;99.90;;;;;;4950539;28;20051;-80
2023/10/28 06:39:21;;;;;;;110.43;32.53;;;9.60;99.90;;;;;;4949500;28;20045;-77
2023/10/28 06:41:48;;;;;;;71.18;27.88;;;9.60;99.90;;;;;;4938565;29;20054;-79
2023/10/28 06:44:15;;;;;;;183.95;38.13;;;9.90;99.90;;;;;;4930619;29;20055;-80
2023/10/28 06:46:42;;;;;;;84.72;28.55;;;9.50;99.90;;;;;;4937865;29;20043;-78
2023/10/28 06:49:09;;;;;;;55.95;24.20;;;10.20;99.90;;;;;;4948098;28;20104;-82
2023/10/28 06:51:34;;;;;;;73.72;26.90;;;9.60;99.90;;;;;;4924201;29;20477;-79
2023/10/28 06:54:01;;;;;;;90.93;29.50;;;9.60;99.90;;;;;;4940500;28;20054;-79
2023/10/28 06:56:35;;;;;;;70.90;27.10;;;9.60;99.90;;;;;;4942734;28;20062;-78
2023/10/28 06:59:01;;;;;;;61.75;25.35;;;9.70;99.90;;;;;;4943474;29;20054;-81
2023/10/28 07:01:27;;;;;;;49.92;22.20;;;9.70;99.90;;;;;;4962326;28;20059;-81
2023/10/28 07:03:53;;;;;;;90.95;28.45;;;9.70;99.90;;;;;;4949136;28;20055;-76
2023/10/28 07:06:29;;;;;;;62.28;23.50;;;9.70;99.90;;;;;;4932410;28;20085;-77
2023/10/28 07:08:55;;;;;;;49.67;22.30;;;9.70;99.90;;;;;;4933962;28;20058;-84
2023/10/28 07:11:21;;;;;;;117.53;30.48;;;9.70;99.90;;;;;;4935075;28;20043;-81
2023/10/28 07:13:47;;;;;;;46.65;21.52;;;10.00;99.90;;;;;;4925104;28;20043;-74
2023/10/28 07:16:12;;;;;;;100.93;26.60;;;9.70;99.90;;;;;;4946557;28;20055;-78
2023/10/28 07:18:39;;;;;;;48.20;21.08;;;10.10;99.90;;;;;;4951838;28;20687;-81
2023/10/28 07:21:05;;;;;;;64.38;22.00;;;10.50;99.90;;;;;;4923969;28;20041;-79
2023/10/28 07:23:31;;;;;;;46.85;20.55;;;9.70;99.90;;;;;;4939863;28;20055;-82
2023/10/28 07:26:01;;;;;;;52.35;20.98;;;9.70;99.90;;;;;;4966422;28;20061;-82
2023/10/28 07:28:33;;;;;;;63.90;21.90;;;9.70;99.90;;;;;;4940174;28;20145;-78
2023/10/28 07:31:02;;;;;;;62.17;21.13;;;12.50;99.90;;;;;;4927387;29;20512;-84
2023/10/28 07:33:28;;;;;;;57.45;21.00;;;9.80;99.90;;;;;;4931981;29;20351;-80
2023/10/28 07:35:56;;;;;;;42.10;17.10;;;9.80;99.90;;;;;;4928185;29;20798;-77
2023/10/28 07:38:22;;;;;;;46.20;18.95;;;9.90;99.90;;;;;;4927327;29;20058;-84
2023/10/28 07:40:49;;;;;;;47.78;20.10;;;9.90;99.90;;;;;;4934155;29;20050;-80
2023/10/28 07:43:18;;;;;;;49.63;19.02;;;9.90;99.90;;;;;;4943136;28;20051;-80
2023/10/28 07:45:47;;;;;;;67.38;21.23;;;10.00;99.90;;;;;;4929679;28;20042;-80
2023/10/28 07:48:12;;;;;;;50.90;18.77;;;10.00;99.90;;;;;;4965266;28;20046;-79
2023/10/28 07:50:39;;;;;;;31.15;16.58;;;10.00;99.90;;;;;;4936322;28;20047;-80
2023/10/28 07:53:08;;;;;;;31.00;16.40;;;10.10;99.90;;;;;;4938123;29;20058;-83
2023/10/28 07:55:34;;;;;;;33.15;15.82;;;10.10;99.90;;;;;;4921704;29;20182;-80
2023/10/28 07:58:00;;;;;;;31.38;15.65;;;10.20;99.90;;;;;;4920520;29;20069;-84
2023/10/28 08:00:26;;;;;;;36.25;16.88;;;10.20;99.90;;;;;;4932858;29;20107;-80
2023/10/28 08:02:55;;;;;;;39.28;16.27;;;10.20;99.90;;;;;;4952245;28;20097;-82
2023/10/28 08:05:21;;;;;;;39.70;15.85;;;10.30;99.90;;;;;;4956734;28;20137;-84
2023/10/28 08:07:52;;;;;;;37.95;16.35;;;10.30;99.90;;;;;;4962694;28;20051;-84
2023/10/28 08:10:22;;;;;;;52.47;18.67;;;10.40;99.90;;;;;;4933340;28;20046;-79
2023/10/28 08:13:14;;;;;;;32.65;14.88;;;10.40;99.90;;;;;;4967372;28;20120;-84
2023/10/28 08:15:41;;;;;;;26.38;13.38;;;10.40;99.90;;;;;;4964210;28;20057;-82
2023/10/28 08:18:07;;;;;;;46.83;16.40;;;10.40;99.90;;;;;;4973746;28;20058;-83
2023/10/28 08:20:33;;;;;;;38.88;14.85;;;10.40;99.90;;;;;;4934277;28;20626;-81
2023/10/28 08:22:58;;;;;;;34.42;13.05;;;10.50;99.90;;;;;;4933166;28;20137;-80
2023/10/28 08:25:24;;;;;;;27.30;12.30;;;10.90;99.90;;;;;;4962163;28;20584;-84
2023/10/28 08:27:53;;;;;;;28.10;12.20;;;10.50;99.90;;;;;;4970755;23;20404;-80
2023/10/28 08:30:20;;;;;;;30.27;12.57;;;10.40;99.90;;;;;;4985674;28;20054;-77
2023/10/28 08:32:48;;;;;;;17.60;9.65;;;10.50;99.90;;;;;;4966927;28;20058;-82
2023/10/28 08:35:14;;;;;;;39.63;13.30;;;10.50;99.90;;;;;;4987808;28;20050;-79
2023/10/28 08:37:40;;;;;;;27.60;10.43;;;10.60;99.90;;;;;;4975020;23;20101;-80
2023/10/28 08:40:10;;;;;;;23.30;10.98;;;10.60;99.90;;;;;;4968702;28;20062;-81
2023/10/28 08:42:40;;;;;;;23.88;9.90;;;10.70;99.90;;;;;;4968638;28;20054;-81
2023/10/28 08:45:08;;;;;;;22.50;9.48;;;10.70;99.90;;;;;;4962957;28;20060;-81
2023/10/28 08:47:40;;;;;;;23.02;10.27;;;10.70;99.90;;;;;;4948072;28;20120;-84
2023/10/28 08:50:08;;;;;;;22.25;9.23;;;10.70;99.90;;;;;;4980958;28;20046;-85
2023/10/28 08:52:38;;;;;;;22.58;9.05;;;10.70;99.90;;;;;;4963819;28;20049;-81
2023/10/28 08:55:05;;;;;;;18.33;7.93;;;10.70;99.90;;;;;;4977155;28;20090;-85
2023/10/28 08:57:34;;;;;;;17.90;7.28;;;10.80;99.90;;;;;;4962328;28;20196;-80
2023/10/28 09:00:01;;;;;;;22.35;8.80;;;10.90;99.90;;;;;;4961708;28;20050;-82
2023/10/28 09:02:29;;;;;;;27.67;10.35;;;10.90;99.90;;;;;;4947498;28;20062;-80
2023/10/28 09:04:56;;;;;;;23.13;9.45;;;11.00;99.90;;;;;;4984178;28;20580;-81
2023/10/28 09:07:21;;;;;;;19.70;8.55;;;11.20;99.90;;;;;;4953436;28;20054;-79
2023/10/28 09:09:58;;;;;;;22.48;8.75;;;11.20;99.90;;;;;;4980202;28;20054;-83
2023/10/28 09:12:24;;;;;;;13.50;7.50;;;11.30;99.90;;;;;;4947521;28;20554;-83
2023/10/28 09:14:50;;;;;;;19.83;8.45;;;11.30;99.90;;;;;;4948532;28;20111;-80
2023/10/28 09:17:21;;;;;;;17.63;7.63;;;11.30;99.90;;;;;;4964993;28;20515;-80
2023/10/28 09:19:47;;;;;;;15.90;7.72;;;11.30;99.90;;;;;;4948588;28;20050;-80
2023/10/28 09:22:16;;;;;;;12.98;7.78;;;11.30;99.90;;;;;;4948244;28;20081;-81
2023/10/28 09:24:58;;;;;;;11.10;7.03;;;11.30;99.90;;;;;;4963962;28;20057;-78
2023/10/28 09:27:33;;;;;;;18.33;7.95;;;11.40;99.90;;;;;;4947901;28;20089;-80
2023/10/28 09:30:28;;;;;;;14.13;6.90;;;11.30;99.90;;;;;;4964294;28;20096;-81
2023/10/28 09:32:57;;;;;;;13.30;6.82;;;11.40;99.90;;;;;;4963717;28;20130;-83
2023/10/28 09:35:26;;;;;;;20.33;9.18;;;11.40;99.90;;;;;;4962940;28;20741;-79
2023/10/28 09:37:55;;;;;;;21.45;8.77;;;11.40;99.90;;;;;;4995582;28;20085;-79
2023/10/28 09:40:24;;;;;;;16.25;7.55;;;11.40;99.90;;;;;;4986897;28;20058;-80
2023/10/28 09:42:53;;;;;;;15.77;8.80;;;11.50;99.90;;;;;;4975906;28;20057;-78
2023/10/28 09:45:26;;;;;;;16.98;8.60;;;11.50;99.90;;;;;;4992048;28;20046;-80
2023/10/28 09:47:58;;;;;;;17.33;8.23;;;11.50;99.90;;;;;;4998596;28;20081;-79
2023/10/28 09:50:27;;;;;;;15.27;8.40;;;11.50;99.90;;;;;;4985162;28;20824;-77
2023/10/28 09:52:56;;;;;;;16.90;9.27;;;11.50;99.90;;;;;;4999228;28;20555;-79
2023/10/28 09:55:34;;;;;;;20.52;7.20;;;11.40;99.90;;;;;;4998166;28;20108;-79
2023/10/28 09:58:33;;;;;;;17.92;7.18;;;11.40;99.90;;;;;;4996172;28;20685;-82
2023/10/28 10:01:23;;;;;;;17.52;7.75;;;11.40;99.90;;;;;;4985490;28;20045;-78
2023/10/28 10:04:06;;;;;;;16.77;7.70;;;11.40;99.90;;;;;;4990845;28;20045;-79
2023/10/28 10:06:34;;;;;;;15.48;7.20;;;11.30;99.90;;;;;;4978248;28;20049;-83
2023/10/28 10:09:00;;;;;;;14.02;7.90;;;11.30;99.90;;;;;;4961705;28;20415;-79
2023/10/28 10:11:29;;;;;;;21.20;8.70;;;11.40;99.90;;;;;;4965917;28;20085;-80
2023/10/28 10:13:55;;;;;;;15.30;7.75;;;11.50;99.90;;;;;;4981405;28;20107;-81
2023/10/28 10:16:36;;;;;;;14.00;7.35;;;11.60;99.90;;;;;;4997472;28;20663;-80
2023/10/28 10:19:21;;;;;;;18.70;7.85;;;11.60;99.90;;;;;;4972089;28;20046;-80
2023/10/28 10:22:26;;;;;;;18.50;8.48;;;11.70;99.90;;;;;;5000230;28;20072;-80
2023/10/28 10:25:01;;;;;;;12.50;7.72;;;11.70;99.90;;;;;;4998779;28;20065;-77
2023/10/28 10:27:52;;;;;;;13.85;8.13;;;11.60;99.90;;;;;;4988443;28;20066;-80
2023/10/28 10:30:21;;;;;;;16.88;7.93;;;11.60;99.90;;;;;;4991749;28;20058;-78
2023/10/28 10:32:49;;;;;;;14.40;8.15;;;11.50;99.90;;;;;;4979928;28;20046;-78
2023/10/28 10:35:33;;;;;;;20.10;8.57;;;11.60;99.90;;;;;;4982390;28;20136;-86
2023/10/28 10:38:08;;;;;;;15.07;8.38;;;11.60;99.90;;;;;;4984201;28;20054;-79
2023/10/28 10:40:46;;;;;;;19.73;8.65;;;11.50;99.90;;;;;;5018113;28;20410;-77
2023/10/28 10:43:20;;;;;;;17.95;9.52;;;11.60;99.90;;;;;;5002225;28;20998;-77
2023/10/28 10:45:49;;;;;;;13.38;8.45;;;11.60;99.90;;;;;;4985182;28;20046;-79
2023/10/28 10:48:26;;;;;;;19.83;11.23;;;11.60;99.90;;;;;;5002452;28;20069;-77
2023/10/28 10:51:00;;;;;;;19.60;9.35;;;11.70;99.90;;;;;;4984715;28;20057;-78
2023/10/28 10:53:29;;;;;;;18.92;9.00;;;11.70;99.90;;;;;;4969072;28;20046;-77
2023/10/28 10:56:05;;;;;;;16.85;8.10;;;11.80;99.90;;;;;;4984565;28;20084;-79
2023/10/28 10:58:31;;;;;;;17.92;9.32;;;11.90;99.90;;;;;;4968419;28;20060;-81
2023/10/28 11:00:56;;;;;;;15.85;8.27;;;11.80;99.90;;;;;;4983615;28;20054;-77
2023/10/28 11:04:38;;;;;;;;;;;;;;;;;;;;;
2023/10/28 11:07:25;;;;;;;14.07;8.20;;;11.80;99.90;;;;;;4982584;23;20058;-77
2023/10/28 11:13:04;;;;;;;15.13;9.10;;;11.70;99.90;;;;;;4955843;28;20062;-78
2023/10/28 11:15:32;;;;;;;14.07;8.98;;;12.90;99.90;;;;;;4991046;28;20472;-80
2023/10/28 11:18:01;;;;;;;18.83;10.27;;;11.60;99.90;;;;;;4887066;29;20059;-78
2023/10/28 11:20:29;;;;;;;18.98;10.73;;;11.60;99.90;;;;;;4898121;29;20543;-79
2023/10/28 11:22:55;;;;;;;18.30;9.68;;;11.60;99.90;;;;;;4898230;29;20055;-79
2023/10/28 11:25:50;;;;;;;17.02;9.48;;;11.50;99.90;;;;;;4900777;29;20488;-80
2023/10/28 11:28:17;;;;;;;18.92;10.30;;;11.60;99.90;;;;;;4880786;29;20107;-79
2023/10/28 11:30:55;;;;;;;19.85;10.10;;;11.60;99.90;;;;;;4889940;29;20070;-84
2023/10/28 11:33:26;;;;;;;12.63;8.70;;;11.70;99.90;;;;;;4918064;29;20119;-81
2023/10/28 11:36:04;;;;;;;17.35;10.57;;;11.70;99.90;;;;;;4884414;29;20595;-82
2023/10/28 11:38:37;;;;;;;14.45;8.85;;;11.80;99.90;;;;;;4885955;29;20047;-77
2023/10/28 11:41:05;;;;;;;15.07;9.15;;;11.90;99.90;;;;;;4903336;29;20066;-77
2023/10/28 11:43:31;;;;;;;14.43;8.73;;;11.90;99.90;;;;;;4889041;29;20043;-80
2023/10/28 11:46:15;;;;;;;15.98;8.88;;;12.00;99.90;;;;;;4884168;29;20133;-78
2023/10/28 11:52:45;;;;;;;14.73;7.50;;;12.10;99.90;;;;;;4986869;23;20064;-79
2023/10/28 11:56:13;;;;;;;;;;;;;;;;;;;;;
2023/10/28 11:59:33;;;;;;;14.93;8.48;;;9.90;99.90;;;;;;4972278;28;20084;-79
2023/10/28 12:02:09;;;;;;;15.70;8.50;;;15.20;99.90;;;;;;4969700;28;20130;-81
2023/10/28 12:04:54;;;;;;;18.77;8.40;;;12.60;99.90;;;;;;4951116;28;20046;-81
2023/10/28 12:07:20;;;;;;;16.70;6.93;;;12.40;99.90;;;;;;4964043;28;20054;-81
2023/10/28 12:14:07;;;;;;;16.95;6.63;;;13.00;99.90;;;;;;4947109;28;20058;-79
2023/10/28 12:17:06;;;;;;;10.48;5.50;;;12.50;99.90;;;;;;4836351;29;20731;-77
2023/10/28 12:20:16;;;;;;;9.40;4.43;;;12.60;99.90;;;;;;4889232;29;20067;-79
2023/10/28 12:27:05;;;;;;;8.20;5.07;;;12.70;99.90;;;;;;4835351;29;20061;-77
2023/10/28 12:29:44;;;;;;;9.77;3.70;;;12.80;99.90;;;;;;4723235;29;20415;-76
2023/10/28 12:32:10;;;;;;;8.23;4.45;;;12.90;99.90;;;;;;4936113;23;20070;-79
2023/10/28 12:34:48;;;;;;;10.73;4.68;;;12.90;99.90;;;;;;4950835;28;20066;-80
2023/10/28 12:37:14;;;;;;;11.23;5.57;;;12.90;99.90;;;;;;4954101;28;20054;-75
2023/10/28 12:39:43;;;;;;;10.80;4.53;;;12.90;99.90;;;;;;4950119;28;20057;-78
2023/10/28 12:42:08;;;;;;;9.75;3.83;;;13.00;99.90;;;;;;4944611;28;20057;-77
2023/10/28 12:44:37;;;;;;;10.70;5.45;;;13.00;99.90;;;;;;4951788;28;20150;-78
2023/10/28 12:47:28;;;;;;;10.65;3.90;;;13.00;99.90;;;;;;4961947;28;20047;-76
2023/10/28 12:49:54;;;;;;;8.20;4.13;;;13.10;99.90;;;;;;4941618;28;20107;-76
2023/10/28 12:56:49;;;;;;;;;;;;;;;;;;;;;
2023/10/28 13:10:33;;;;;;;12.35;3.58;;;12.80;99.90;;;;;;4947216;23;20223;-77
2023/10/28 13:13:00;;;;;;;8.13;3.20;;;12.80;99.90;;;;;;4955599;28;20107;-77
2023/10/28 13:15:35;;;;;;;8.73;2.92;;;12.70;99.90;;;;;;4968806;28;20077;-74
2023/10/28 13:18:04;;;;;;;9.77;2.83;;;12.80;99.90;;;;;;4962986;28;20103;-77
2023/10/28 13:20:33;;;;;;;5.95;2.25;;;12.90;99.90;;;;;;4956114;28;20095;-75